Time,TemperatureF,DewpointF,PressureIn,WindDirection,WindDirectionDegrees,WindSpeedMPH,WindSpeedGustMPH,Humidity,HourlyPrecipIn,Conditions,Clouds,dailyrainin,SoftwareType,DateUTC
2013-10-24 00:13:00,55.0,48.6,30.02,NNW,337,0.0,-999.0,79,-99.99,,,0.00,Acu-Link.com,2013-10-24 07:13:00,
2013-10-24 00:28:00,54.5,49.1,30.03,NNW,337,0.0,-999.0,82,-99.99,,,0.00,Acu-Link.com,2013-10-24 07:28:00,
2013-10-24 00:43:00,54.1,49.1,30.03,NNW,337,0.0,-999.0,83,-99.99,,,0.00,Acu-Link.com,2013-10-24 07:43:00,
2013-10-24 00:58:00,53.6,49.2,30.04,NNW,337,0.0,-999.0,85,-99.99,,,0.00,Acu-Link.com,2013-10-24 07:58:00,
2013-10-24 01:13:00,53.6,49.2,30.03,NNW,337,0.0,-999.0,85,-99.99,,,0.00,Acu-Link.com,2013-10-24 08:13:00,
2013-10-24 01:29:00,53.4,49.3,30.04,NNW,337,0.0,-999.0,86,-99.99,,,0.00,Acu-Link.com,2013-10-24 08:29:00,
2013-10-24 01:44:00,53.2,48.8,30.04,NNW,337,0.0,-999.0,85,-99.99,,,0.00,Acu-Link.com,2013-10-24 08:44:00,
2013-10-24 01:59:00,53.1,48.7,30.03,NNW,337,0.0,-999.0,85,-99.99,,,0.00,Acu-Link.com,2013-10-24 08:59:00,
2013-10-24 02:14:00,52.5,48.4,30.05,NNW,337,0.0,-999.0,86,-99.99,,,0.00,Acu-Link.com,2013-10-24 09:14:00,
2013-10-24 02:29:00,51.1,47.1,30.05,NNW,337,0.0,-999.0,86,-99.99,,,0.00,Acu-Link.com,2013-10-24 09:29:00,
2013-10-24 02:45:00,50.7,47.6,30.05,NNW,337,0.0,-999.0,89,-99.99,,,0.00,Acu-Link.com,2013-10-24 09:45:00,
2013-10-24 03:00:00,50.4,47.3,30.05,NNW,337,0.0,-999.0,89,-99.99,,,0.00,Acu-Link.com,2013-10-24 10:00:00,
2013-10-24 03:15:00,49.8,47.0,30.05,NNW,337,0.0,-999.0,90,-99.99,,,0.00,Acu-Link.com,2013-10-24 10:15:00,
2013-10-24 03:30:00,49.8,47.3,30.05,NNW,337,1.7,-999.0,91,-99.99,,,0.00,Acu-Link.com,2013-10-24 10:30:00,
2013-10-24 03:46:00,50.0,47.5,30.05,NNW,337,0.0,-999.0,91,-99.99,,,0.00,Acu-Link.com,2013-10-24 10:46:00,
2013-10-24 04:01:00,49.8,47.0,30.06,NNW,337,0.0,-999.0,90,-99.99,,,0.00,Acu-Link.com,2013-10-24 11:01:00,
2013-10-24 04:16:00,49.6,46.8,30.07,NNW,337,0.0,-999.0,90,-99.99,,,0.00,Acu-Link.com,2013-10-24 11:16:00,
2013-10-24 04:32:00,48.9,46.1,30.07,NNW,337,0.0,-999.0,90,-99.99,,,0.00,Acu-Link.com,2013-10-24 11:32:00,
2013-10-24 04:47:00,48.7,46.2,30.07,NNW,337,0.0,-999.0,91,-99.99,,,0.00,Acu-Link.com,2013-10-24 11:47:00,
2013-10-24 05:02:00,48.2,45.7,30.07,NNW,337,0.0,-999.0,91,-99.99,,,0.00,Acu-Link.com,2013-10-24 12:02:00,
2013-10-24 05:17:00,48.0,45.8,30.07,NNW,337,0.0,-999.0,92,-99.99,,,0.00,Acu-Link.com,2013-10-24 12:17:00,
2013-10-24 05:33:00,47.8,45.6,30.07,NNW,337,0.0,-999.0,92,-99.99,,,0.00,Acu-Link.com,2013-10-24 12:33:00,
2013-10-24 05:48:00,47.3,45.1,30.08,NNW,337,0.0,-999.0,92,-99.99,,,0.00,Acu-Link.com,2013-10-24 12:48:00,
2013-10-24 06:03:00,48.0,46.4,30.08,NNW,337,0.0,-999.0,94,-99.99,,,0.00,Acu-Link.com,2013-10-24 13:03:00,
2013-10-24 06:18:00,47.7,46.1,30.08,NNW,337,0.0,-999.0,94,-99.99,,,0.00,Acu-Link.com,2013-10-24 13:18:00,
2013-10-24 06:33:00,46.9,45.3,30.08,NNW,337,0.0,-999.0,94,-99.99,,,0.00,Acu-Link.com,2013-10-24 13:33:00,
2013-10-24 06:48:00,46.9,45.3,30.08,NNW,337,0.0,-999.0,94,-99.99,,,0.00,Acu-Link.com,2013-10-24 13:48:00,
2013-10-24 07:04:00,47.1,45.5,30.09,NNW,337,0.0,-999.0,94,-99.99,,,0.00,Acu-Link.com,2013-10-24 14:04:00,
2013-10-24 07:19:00,46.4,44.8,30.09,NNW,337,0.0,-999.0,94,-99.99,,,0.00,Acu-Link.com,2013-10-24 14:19:00,
2013-10-24 07:35:00,46.6,45.2,30.09,NNW,337,0.0,-999.0,95,-99.99,,,0.00,Acu-Link.com,2013-10-24 14:35:00,
2013-10-24 07:50:00,47.3,45.9,30.10,NNW,337,0.0,-999.0,95,-99.99,,,0.00,Acu-Link.com,2013-10-24 14:50:00,
2013-10-24 08:08:00,48.7,47.6,30.09,NNW,337,0.0,-999.0,96,-99.99,,,0.00,Acu-Link.com,2013-10-24 15:08:00,
2013-10-24 08:23:00,50.2,48.3,30.10,NNW,337,1.1,-999.0,93,-99.99,,,0.00,Acu-Link.com,2013-10-24 15:23:00,
2013-10-24 08:39:00,52.2,48.8,30.10,NNW,337,2.2,-999.0,88,-99.99,,,0.00,Acu-Link.com,2013-10-24 15:39:00,
2013-10-24 08:54:00,54.1,48.7,30.11,NE,45,2.7,-999.0,82,-99.99,,,0.00,Acu-Link.com,2013-10-24 15:54:00,
2013-10-24 09:09:00,55.9,48.8,30.10,NE,45,2.7,-999.0,77,-99.99,,,0.00,Acu-Link.com,2013-10-24 16:09:00,
2013-10-24 09:24:00,58.1,49.5,30.11,NE,45,2.2,-999.0,73,-99.99,,,0.00,Acu-Link.com,2013-10-24 16:24:00,
2013-10-24 09:40:00,58.5,49.9,30.11,NE,45,0.0,-999.0,73,-99.99,,,0.00,Acu-Link.com,2013-10-24 16:40:00,
2013-10-24 09:55:00,61.5,50.0,30.11,NE,45,2.2,-999.0,66,-99.99,,,0.00,Acu-Link.com,2013-10-24 16:55:00,
2013-10-24 10:10:00,61.2,49.7,30.11,WSW,247,1.1,-999.0,66,-99.99,,,0.00,Acu-Link.com,2013-10-24 17:10:00,
2013-10-24 10:26:00,64.0,49.8,30.11,WSW,247,1.7,-999.0,60,-99.99,,,0.00,Acu-Link.com,2013-10-24 17:26:00,
2013-10-24 10:41:00,65.1,50.0,30.11,WSW,247,1.7,-999.0,58,-99.99,,,0.00,Acu-Link.com,2013-10-24 17:41:00,
2013-10-24 10:56:00,66.2,50.5,30.11,WSW,247,1.1,-999.0,57,-99.99,,,0.00,Acu-Link.com,2013-10-24 17:56:00,
2013-10-24 11:11:00,67.5,51.2,30.11,WSW,247,1.1,-999.0,56,-99.99,,,0.00,Acu-Link.com,2013-10-24 18:11:00,
2013-10-24 11:27:00,68.9,51.6,30.11,West,270,1.7,-999.0,54,-99.99,,,0.00,Acu-Link.com,2013-10-24 18:27:00,
2013-10-24 11:42:00,69.4,51.5,30.11,WSW,247,1.7,-999.0,53,-99.99,,,0.00,Acu-Link.com,2013-10-24 18:42:00,
2013-10-24 11:57:00,70.5,51.5,30.10,West,270,0.0,-999.0,51,-99.99,,,0.00,Acu-Link.com,2013-10-24 18:57:00,
2013-10-24 12:12:00,72.3,51.5,30.09,North,0,2.2,-999.0,48,-99.99,,,0.00,Acu-Link.com,2013-10-24 19:12:00,
2013-10-24 12:27:00,73.2,52.3,30.10,NNW,337,2.2,-999.0,48,-99.99,,,0.00,Acu-Link.com,2013-10-24 19:27:00,
2013-10-24 12:43:00,75.4,53.2,30.09,WNW,292,1.1,-999.0,46,-99.99,,,0.00,Acu-Link.com,2013-10-24 19:43:00,
2013-10-24 13:00:00,75.6,52.7,30.08,North,0,1.1,-999.0,45,-99.99,,,0.00,Acu-Link.com,2013-10-24 20:00:00,
2013-10-24 13:47:00,77.5,52.6,30.05,WNW,292,2.7,-999.0,42,-99.99,,,0.00,Acu-Link.com,2013-10-24 20:47:00,
2013-10-24 14:08:00,77.5,52.6,30.04,NNW,337,2.2,-999.0,42,-99.99,,,0.00,Acu-Link.com,2013-10-24 21:08:00,
2013-10-24 14:24:00,80.8,50.6,30.04,WNW,292,3.7,-999.0,35,-99.99,,,0.00,Acu-Link.com,2013-10-24 21:24:00,
2013-10-24 15:34:00,81.1,46.7,30.03,NNE,22,5.3,-999.0,30,-99.99,,,0.00,Acu-Link.com,2013-10-24 22:34:00,
2013-10-24 15:49:00,80.6,47.1,30.02,West,270,4.2,-999.0,31,-99.99,,,0.00,Acu-Link.com,2013-10-24 22:49:00,
2013-10-24 16:04:00,81.7,47.2,30.01,NE,45,1.7,-999.0,30,-99.99,,,0.00,Acu-Link.com,2013-10-24 23:04:00,
2013-10-24 16:19:00,81.1,47.6,30.01,NNW,337,4.2,-999.0,31,-99.99,,,0.00,Acu-Link.com,2013-10-24 23:19:00,
2013-10-24 16:35:00,80.8,47.3,30.02,NNW,337,5.3,-999.0,31,-99.99,,,0.00,Acu-Link.com,2013-10-24 23:35:00,
2013-10-24 16:50:00,80.4,47.0,30.02,NW,315,4.7,-999.0,31,-99.99,,,0.00,Acu-Link.com,2013-10-24 23:50:00,
2013-10-24 17:06:00,81.0,49.2,30.03,NNW,337,4.2,-999.0,33,-99.99,,,0.00,Acu-Link.com,2013-10-25 00:06:00,
2013-10-24 17:28:00,80.2,47.6,30.04,NNW,337,2.7,-999.0,32,-99.99,,,0.00,Acu-Link.com,2013-10-25 00:28:00,
2013-10-24 17:43:00,78.6,48.6,30.04,NNW,337,1.7,-999.0,35,-99.99,,,0.00,Acu-Link.com,2013-10-25 00:43:00,
2013-10-24 17:58:00,75.9,48.5,30.04,NNW,337,0.0,-999.0,38,-99.99,,,0.00,Acu-Link.com,2013-10-25 00:58:00,
2013-10-24 18:14:00,74.1,48.9,30.05,NNW,337,0.0,-999.0,41,-99.99,,,0.00,Acu-Link.com,2013-10-25 01:14:00,
2013-10-24 18:29:00,72.1,49.0,30.06,NNW,337,0.0,-999.0,44,-99.99,,,0.00,Acu-Link.com,2013-10-25 01:29:00,
2013-10-24 18:44:00,69.8,49.2,30.07,NNW,337,0.0,-999.0,48,-99.99,,,0.00,Acu-Link.com,2013-10-25 01:44:00,
2013-10-24 18:59:00,68.5,49.1,30.07,NNW,337,0.0,-999.0,50,-99.99,,,0.00,Acu-Link.com,2013-10-25 01:59:00,
2013-10-24 19:14:00,66.9,50.2,30.08,NNW,337,0.0,-999.0,55,-99.99,,,0.00,Acu-Link.com,2013-10-25 02:14:00,
2013-10-24 19:30:00,65.5,50.8,30.09,NNW,337,0.0,-999.0,59,-99.99,,,0.00,Acu-Link.com,2013-10-25 02:30:00,
2013-10-24 19:45:00,64.9,50.2,30.10,NNW,337,0.0,-999.0,59,-99.99,,,0.00,Acu-Link.com,2013-10-25 02:45:00,
2013-10-24 20:00:00,64.6,50.8,30.11,NNW,337,0.0,-999.0,61,-99.99,,,0.00,Acu-Link.com,2013-10-25 03:00:00,
2013-10-24 20:15:00,64.2,50.5,30.12,NNW,337,1.7,-999.0,61,-99.99,,,0.00,Acu-Link.com,2013-10-25 03:15:00,
2013-10-24 20:31:00,64.0,50.3,30.12,NNW,337,2.2,-999.0,61,-99.99,,,0.00,Acu-Link.com,2013-10-25 03:31:00,
2013-10-24 20:46:00,63.7,50.0,30.13,NNW,337,2.2,-999.0,61,-99.99,,,0.00,Acu-Link.com,2013-10-25 03:46:00,
2013-10-24 21:01:00,63.0,49.8,30.13,NNW,337,0.0,-999.0,62,-99.99,,,0.00,Acu-Link.com,2013-10-25 04:01:00,
2013-10-24 21:16:00,62.8,49.6,30.14,NNE,22,2.7,-999.0,62,-99.99,,,0.00,Acu-Link.com,2013-10-25 04:16:00,
2013-10-24 21:31:00,62.2,49.9,30.15,NNE,22,1.1,-999.0,64,-99.99,,,0.00,Acu-Link.com,2013-10-25 04:31:00,
2013-10-24 21:46:00,61.3,49.8,30.15,NNE,22,2.2,-999.0,66,-99.99,,,0.00,Acu-Link.com,2013-10-25 04:46:00,
2013-10-24 22:01:00,60.8,49.4,30.16,NNE,22,0.0,-999.0,66,-99.99,,,0.00,Acu-Link.com,2013-10-25 05:01:00,
2013-10-24 22:17:00,60.3,49.7,30.17,NNE,22,0.0,-999.0,68,-99.99,,,0.00,Acu-Link.com,2013-10-25 05:17:00,
2013-10-24 22:32:00,59.5,49.3,30.16,NNE,22,0.0,-999.0,69,-99.99,,,0.00,Acu-Link.com,2013-10-25 05:32:00,
2013-10-24 22:47:00,58.8,49.4,30.17,NNE,22,0.0,-999.0,71,-99.99,,,0.00,Acu-Link.com,2013-10-25 05:47:00,
2013-10-24 23:02:00,58.3,49.3,30.17,NNE,22,0.0,-999.0,72,-99.99,,,0.00,Acu-Link.com,2013-10-25 06:02:00,
2013-10-24 23:17:00,57.9,49.3,30.17,NNE,22,0.0,-999.0,73,-99.99,,,0.00,Acu-Link.com,2013-10-25 06:17:00,
2013-10-24 23:32:00,57.6,49.4,30.18,NNE,22,0.0,-999.0,74,-99.99,,,0.00,Acu-Link.com,2013-10-25 06:32:00,
2013-10-24 23:47:00,57.2,49.3,30.18,NNE,22,0.0,-999.0,75,-99.99,,,0.00,Acu-Link.com,2013-10-25 06:47:00,